Latest Weather Observations for Bairnsdale

IDV60801

Issued at 1:35 am EDT Saturday 29 November 2014 (issued every 30 minutes, with the page automatically refreshed every 10 minutes)

About weather observations | Map of weather stations | Latest weather observations for VIC | Other Formats
Station Details ID: 085279 Name: BAIRNSDALE AIRPORT Lat: -37.88 Lon: 147.57 Height: 49.4 m
Data from the previous 72 hours. | See also: Recent months at Bairnsdale
Date/Time
EDT
Temp
°C
App
Temp
°C
Dew
Point
Rel
Hum
%
Delta-T
°C
Wind Press
QNH
hPa
Press
MSL
hPa
Rain
since 9 am
mm
Dir
 
Spd
km/h
Gust
km/h
Spd
kts
Gust
kts
29/01:30am 9.5 8.3 9.5 100 0.0 NNW 6 7 3 4 1018.2 1018.1 0.0
29/01:00am 9.4 8.5 9.4 100 0.0 NNW 4 6 2 3 1018.7 1018.6 0.0
29/12:30am 11.2 11.6 11.2 100 0.0 CALM 0 0 0 0 1019.3 1019.2 0.0
29/12:05am 10.9 10.1 10.9 100 0.0 NNW 6 7 3 4 1019.7 1019.7 0.0
29/12:03am 10.9 9.9 10.9 100 0.0 NNW 7 7 4 4 1019.7 1019.7 0.0
29/12:00am 10.5 9.2 9.9 96 0.3 NNW 7 7 4 4 1019.7 1019.7 0.0
 
Date/Time
EDT
Temp
°C
App
Temp
°C
Dew
Point
Rel
Hum
%
Delta-T
°C
Wind Press
QNH
hPa
Press
MSL
hPa
Rain
since 9 am
mm
Dir
 
Spd
km/h
Gust
km/h
Spd
kts
Gust
kts
28/11:43pm 10.3 10.2 9.5 95 0.4 CALM 0 0 0 0 1019.9 1019.9 0.0
28/11:30pm 11.1 11.3 10.5 96 0.3 CALM 0 0 0 0 1020.0 1020.0 0.0
28/11:00pm 11.1 10.1 10.2 94 0.5 SSW 6 6 3 3 1020.4 1020.4 0.0
28/10:30pm 11.1 9.8 9.9 92 0.6 SSW 7 9 4 5 1020.7 1020.7 0.0
28/10:00pm 11.6 10.3 10.0 90 0.8 S 7 9 4 5 1020.7 1020.7 0.0
28/09:30pm 12.2 10.8 9.6 84 1.3 S 7 9 4 5 1020.5 1020.5 0.0
28/09:00pm 15.0 14.2 11.6 80 1.8 SSE 7 9 4 5 1020.3 1020.3 0.0
28/08:30pm 15.1 13.9 11.5 79 1.9 SE 9 9 5 5 1020.2 1020.2 0.0
28/08:00pm 16.2 14.2 11.6 74 2.5 SE 13 17 7 9 1020.1 1020.1 0.0
28/07:30pm 17.3 15.1 12.2 72 2.8 SE 15 19 8 10 1019.8 1019.8 0.0
28/07:00pm 18.1 15.8 11.9 67 3.4 SE 15 20 8 11 1020.0 1020.0 0.0
28/06:30pm 18.1 15.5 11.9 67 3.4 SE 17 20 9 11 1019.9 1019.9 0.0
28/06:00pm 18.8 15.9 9.6 55 4.9 ESE 15 22 8 12 1019.7 1019.7 0.0
28/05:30pm 19.1 15.7 9.3 53 5.2 ESE 17 22 9 12 1019.6 1019.6 0.0
28/05:00pm 19.3 15.4 7.1 45 6.2 ESE 17 22 9 12 1019.7 1019.7 0.0
28/04:30pm 19.9 16.4 8.6 48 5.9 ESE 17 24 9 13 1019.9 1019.9 0.0
28/04:00pm 19.4 15.5 9.6 53 5.2 ESE 20 26 11 14 1020.2 1020.2 0.0
28/03:30pm 19.1 14.9 9.6 54 5.0 SE 22 30 12 16 1020.6 1020.6 0.0
28/03:00pm 19.7 15.2 8.4 48 5.9 SE 22 32 12 17 1020.7 1020.7 0.0
28/02:30pm 20.4 16.9 10.2 52 5.5 SE 19 28 10 15 1020.7 1020.7 0.0
28/02:00pm 20.2 16.7 10.9 55 5.1 ESE 20 32 11 17 1020.7 1020.7 0.0
28/01:30pm 20.2 17.3 11.1 56 5.0 ESE 17 24 9 13 1020.9 1020.9 0.0
28/01:00pm 20.3 17.8 11.0 55 5.1 SE 15 22 8 12 1021.1 1021.1 0.0
28/12:30pm 20.1 17.9 10.8 55 5.1 ESE 13 22 7 12 1021.7 1021.7 0.0
28/12:00pm 19.7 18.2 10.4 55 5.0 ESE 9 17 5 9 1022.0 1022.0 0.0
28/11:30am 19.0 17.3 10.0 56 4.8 NE 9 17 5 9 1022.2 1022.2 0.0
28/11:00am 18.7 16.9 9.5 55 4.8 NE 9 19 5 10 1022.5 1022.5 0.0
28/10:30am 17.6 15.7 9.2 58 4.4 E 9 17 5 9 1022.8 1022.8 0.0
28/10:00am 17.0 16.0 10.4 65 3.5 NE 6 9 3 5 1023.2 1023.2 0.0
28/09:30am 15.5 14.6 10.5 72 2.6 NNE 6 9 3 5 1023.5 1023.5 0.0
28/09:00am 14.3 13.9 12.3 88 1.1 ENE 6 9 3 5 1023.9 1023.9 0.0
28/08:30am 12.3 11.6 12.1 99 0.1 NW 7 9 4 5 1023.8 1023.8 0.0
28/08:00am 10.9 9.4 10.7 99 0.1 WNW 9 11 5 6 1023.7 1023.7 0.0
28/07:30am 8.6 6.2 8.5 99 0.0 NW 11 13 6 7 1023.4 1023.4 0.0
28/07:04am 6.8 4.7 6.7 99 0.0 NW 7 11 4 6 1023.3 1023.3 0.0
28/07:02am 6.8 4.7 6.7 99 0.0 NW 7 9 4 5 1023.2 1023.2 0.0
28/07:00am 6.7 4.6 6.6 99 0.0 NW 7 9 4 5 1023.2 1023.2 0.0
28/06:30am 4.6 1.7 4.5 99 0.0 NNW 9 11 5 6 1022.9 1022.9 0.0
28/06:09am 3.8 1.1 3.7 99 0.0 NNW 7 11 4 6 1022.8 1022.8 0.0
28/06:00am 3.8 1.1 3.7 99 0.0 NNW 7 9 4 5 1022.8 1022.8 0.0
28/05:58am 3.9 1.2 3.8 99 0.0 NNW 7 9 4 5 1022.8 1022.8 0.0
28/05:49am 4.0 1.5 3.9 99 0.0 NW 6 7 3 4 1022.8 1022.8 0.0
28/05:30am 3.4 0.6 3.1 98 0.1 SSW 7 9 4 5 1022.7 1022.7 0.0
28/05:00am 4.8 2.5 4.7 99 0.0 W 6 7 3 4 1022.2 1022.2 0.0
28/04:37am 4.8 2.3 4.7 99 0.0 NW 7 11 4 6 1022.3 1022.3 0.0
28/04:30am 4.6 1.7 4.5 99 0.0 WNW 9 13 5 7 1022.4 1022.4 0.0
28/04:00am 4.2 1.2 3.9 98 0.1 NW 9 13 5 7 1022.3 1022.3 0.0
28/03:38am 4.3 1.8 4.0 98 0.1 NNW 6 7 3 4 1022.3 1022.3 0.0
28/03:30am 3.7 2.2 3.1 96 0.2 CALM 0 0 0 0 1022.2 1022.2 0.0
28/03:20am 3.6 2.1 3.0 96 0.2 CALM 0 0 0 0 1022.2 1022.2 0.0
28/03:16am 4.7 3.5 4.4 98 0.1 CALM 0 0 0 0 1022.2 1022.2 0.0
28/03:00am 5.5 3.3 5.1 97 0.2 NW 6 6 3 3 1022.3 1022.3 0.0
28/02:30am 6.4 4.4 6.1 98 0.1 NW 6 7 3 4 1022.8 1022.8 0.0
28/02:00am 6.0 3.7 5.6 97 0.2 NNW 7 9 4 5 1023.0 1023.0 0.0
28/01:47am 5.7 3.5 5.1 96 0.3 N 6 7 3 4 1023.2 1023.2 0.0
28/01:30am 6.2 3.9 5.6 96 0.3 N 7 9 4 5 1023.5 1023.5 0.0
28/01:18am 7.3 5.3 6.9 97 0.2 N 7 9 4 5 1023.6 1023.6 0.0
28/01:00am 6.9 6.1 6.3 96 0.3 CALM 0 0 0 0 1023.7 1023.7 0.0
28/12:49am 6.6 5.7 6.0 96 0.3 CALM 0 0 0 0 1023.9 1023.9 0.0
28/12:30am 5.9 4.4 5.2 95 0.3 SSE 2 6 1 3 1024.3 1024.3 0.0
28/12:00am 6.9 6.0 6.0 94 0.4 CALM 0 0 0 0 1024.6 1024.6 0.0
 
Date/Time
EDT
Temp
°C
App
Temp
°C
Dew
Point
Rel
Hum
%
Delta-T
°C
Wind Press
QNH
hPa
Press
MSL
hPa
Rain
since 9 am
mm
Dir
 
Spd
km/h
Gust
km/h
Spd
kts
Gust
kts
27/11:43pm 6.9 4.8 5.8 93 0.5 ESE 6 6 3 3 1024.7 1024.7 0.0
27/11:30pm 7.4 6.2 6.5 94 0.4 ESE 2 7 1 4 1024.7 1024.7 0.0
27/11:00pm 7.8 7.0 6.4 91 0.6 CALM 0 0 0 0 1025.0 1025.0 0.0
27/10:30pm 10.1 9.8 8.5 90 0.8 CALM 0 0 0 0 1025.1 1025.1 0.0
27/10:00pm 9.0 7.5 7.0 87 0.9 SSE 4 9 2 5 1025.0 1025.0 0.0
27/09:30pm 11.9 9.9 8.6 80 1.6 SE 9 11 5 6 1024.7 1024.7 0.0
27/09:00pm 12.1 10.5 8.6 79 1.7 ESE 7 9 4 5 1024.6 1024.6 0.0
27/08:30pm 12.8 10.9 8.9 77 2.0 ESE 9 9 5 5 1024.5 1024.5 0.0
27/08:00pm 13.9 11.9 8.7 71 2.6 ESE 9 13 5 7 1024.3 1024.3 0.0
27/07:30pm 15.0 12.3 8.9 67 3.1 ESE 13 19 7 10 1024.3 1024.3 0.0
27/07:00pm 15.8 13.1 9.0 64 3.5 SE 13 20 7 11 1024.1 1024.1 0.0
27/06:30pm 16.2 12.4 8.9 62 3.8 SE 19 26 10 14 1023.8 1023.8 0.0
27/06:00pm 17.2 13.4 9.1 59 4.2 SSE 19 26 10 14 1023.6 1023.6 0.0
27/05:30pm 17.1 13.1 9.0 59 4.2 SSE 20 30 11 16 1023.6 1023.6 0.0
27/05:00pm 17.7 13.3 9.1 57 4.5 S 22 28 12 15 1023.7 1023.7 0.0
27/04:30pm 18.4 14.4 9.2 55 4.8 S 20 32 11 17 1023.7 1023.7 0.0
27/04:00pm 18.5 14.6 9.3 55 4.8 SSE 20 28 11 15 1023.7 1023.7 0.0
27/03:30pm 19.0 14.7 9.5 54 5.0 S 22 30 12 16 1023.7 1023.7 0.0
27/03:00pm 19.6 15.7 9.5 52 5.3 S 20 30 11 16 1023.7 1023.7 0.0
27/02:30pm 19.1 15.7 9.0 52 5.3 SSE 17 28 9 15 1023.8 1023.8 0.0
27/02:00pm 18.7 14.9 8.9 53 5.1 S 19 26 10 14 1024.1 1024.1 0.0
27/01:30pm 19.2 15.8 7.6 47 5.9 SSE 15 26 8 14 1024.1 1024.1 0.0
27/01:00pm 19.3 15.1 7.4 46 6.0 SW 19 22 10 12 1024.2 1024.2 0.0
27/12:30pm 18.5 14.7 6.0 44 6.2 WSW 15 20 8 11 1024.4 1024.4 0.0
27/12:00pm 17.6 13.0 5.5 45 5.8 SSW 19 24 10 13 1024.7 1024.7 0.0
27/11:30am 17.5 13.9 6.7 49 5.4 W 15 30 8 16 1024.9 1024.9 0.0
27/11:00am 16.8 12.9 6.9 52 4.9 WSW 17 28 9 15 1024.9 1024.9 0.0
27/10:30am 16.5 12.6 6.9 53 4.8 WSW 17 22 9 12 1025.0 1025.0 0.0
27/10:00am 15.5 11.8 6.5 55 4.4 W 15 24 8 13 1025.2 1025.2 0.0
27/09:30am 14.9 10.4 6.0 55 4.3 W 19 26 10 14 1025.5 1025.5 0.0
27/09:00am 14.7 10.6 6.0 56 4.1 WSW 17 28 9 15 1025.5 1025.5 0.0
27/08:30am 13.5 8.7 5.7 59 3.7 W 20 30 11 16 1025.6 1025.6 0.0
27/08:00am 12.9 9.1 5.8 62 3.3 W 15 24 8 13 1025.4 1025.4 0.0
27/07:30am 12.5 9.2 6.5 67 2.9 W 13 19 7 10 1025.1 1025.1 0.0
27/07:00am 11.7 8.8 6.4 70 2.5 W 11 17 6 9 1024.8 1024.8 0.0
27/06:30am 11.1 8.2 6.5 73 2.2 W 11 13 6 7 1024.4 1024.4 0.0
27/06:00am 11.0 8.1 6.4 73 2.2 W 11 13 6 7 1024.2 1024.2 0.0
27/05:30am 10.9 7.9 6.1 72 2.2 W 11 13 6 7 1024.0 1024.0 0.0
27/05:00am 10.9 7.9 6.1 72 2.2 W 11 15 6 8 1023.8 1023.8 0.0
27/04:30am 10.9 8.0 6.5 74 2.1 WNW 11 15 6 8 1023.6 1023.6 0.0
27/04:00am 11.2 8.1 5.5 68 2.6 W 11 15 6 8 1023.3 1023.3 0.0
27/03:30am 11.4 7.2 5.7 68 2.6 SW 17 22 9 12 1023.3 1023.3 0.0
27/03:00am 11.3 7.9 6.0 70 2.5 WSW 13 17 7 9 1023.4 1023.4 0.0
27/02:30am 11.2 8.3 6.3 72 2.3 W 11 15 6 8 1023.5 1023.5 0.0
27/02:00am 11.4 8.1 6.3 71 2.4 W 13 19 7 10 1023.6 1023.6 0.0
27/01:30am 11.3 7.7 6.8 74 2.1 W 15 20 8 11 1023.6 1023.6 0.0
27/01:00am 11.3 8.2 7.4 77 1.9 W 13 17 7 9 1023.8 1023.8 0.0
27/12:30am 10.8 7.0 7.5 80 1.6 WSW 17 22 9 12 1023.8 1023.8 0.0
27/12:00am 10.7 8.6 8.3 85 1.2 WSW 9 13 5 7 1023.8 1023.8 0.0
 
Date/Time
EDT
Temp
°C
App
Temp
°C
Dew
Point
Rel
Hum
%
Delta-T
°C
Wind Press
QNH
hPa
Press
MSL
hPa
Rain
since 9 am
mm
Dir
 
Spd
km/h
Gust
km/h
Spd
kts
Gust
kts
26/11:30pm 10.3 8.2 8.4 88 0.9 SW 9 11 5 6 1023.6 1023.6 0.0
26/11:00pm 10.5 8.9 7.9 84 1.3 SSW 6 11 3 6 1023.5 1023.5 0.0
26/10:30pm 11.5 9.5 8.5 82 1.5 SW 9 15 5 8 1023.5 1023.5 0.0
26/10:00pm 12.5 8.5 8.4 76 2.0 SSW 19 24 10 13 1022.9 1022.9 0.0
26/09:30pm 14.8 10.8 9.2 69 2.9 WSW 20 26 11 14 1022.6 1022.6 0.0
26/09:00pm 13.5 12.5 10.9 84 1.4 WNW 7 11 4 6 1022.1 1022.1 0.0
26/08:30pm 13.7 12.4 10.1 79 1.9 NW 7 9 4 5 1021.9 1021.9 0.0
26/08:00pm 14.8 13.3 10.6 76 2.2 SW 9 13 5 7 1021.5 1021.5 0.0
26/07:30pm 15.6 12.2 10.6 72 2.7 SW 19 22 10 12 1021.2 1021.2 0.0
26/07:00pm 16.7 12.9 11.2 70 3.0 SW 22 28 12 15 1020.8 1020.8 0.0
26/06:30pm 17.6 13.4 11.2 66 3.5 SW 24 35 13 19 1020.3 1020.3 0.0
26/06:00pm 17.9 12.7 11.5 66 3.5 SSW 30 41 16 22 1020.0 1020.0 0.0
26/05:30pm 18.1 12.8 11.4 65 3.7 SSW 30 37 16 20 1019.8 1019.8 0.0
26/05:00pm 20.5 14.0 10.3 52 5.5 SW 35 44 19 24 1019.5 1019.5 0.0
26/04:30pm 20.9 15.7 10.1 50 5.8 SW 28 39 15 21 1019.5 1019.5 0.0
26/04:00pm 20.3 14.4 9.2 49 5.9 WSW 30 39 16 21 1019.7 1019.7 0.0
26/03:30pm 20.6 16.0 9.8 50 5.8 WSW 24 35 13 19 1019.6 1019.6 0.0
26/03:00pm 20.6 16.1 10.1 51 5.7 WSW 24 33 13 18 1019.6 1019.6 0.0
26/02:30pm 20.3 14.8 10.7 54 5.2 SW 30 39 16 21 1019.7 1019.7 0.0
26/02:00pm 18.8 12.9 9.0 53 5.1 WSW 30 37 16 20 1019.6 1019.6 0.0
26/01:30pm 19.7 13.7 8.7 49 5.8 SW 30 41 16 22 1019.6 1019.6 0.0
26/01:00pm 19.2 13.9 8.5 50 5.5 SW 26 37 14 20 1019.8 1019.8 0.0
26/12:30pm 18.8 13.5 8.5 51 5.3 SW 26 35 14 19 1019.9 1019.9 0.0
26/12:00pm 18.7 14.0 7.8 49 5.6 W 22 32 12 17 1019.9 1019.9 0.0
26/11:30am 18.5 13.3 8.7 53 5.1 WSW 26 35 14 19 1019.9 1019.9 0.0
26/11:00am 18.9 14.8 8.8 52 5.3 WSW 20 32 11 17 1019.9 1019.9 0.0
26/10:30am 17.3 13.3 8.2 55 4.6 WSW 19 24 10 13 1020.1 1020.1 0.0
26/10:00am 17.0 13.9 8.9 59 4.2 WSW 15 20 8 11 1020.2 1020.2 0.0
26/09:30am 15.9 11.7 8.4 61 3.8 SW 20 28 11 15 1020.3 1020.3 0.0
26/09:00am 14.9 11.2 7.9 63 3.5 WSW 17 20 9 11 1020.6 1020.6 0.0
26/08:30am 14.2 12.9 10.0 76 2.2 W 7 13 4 7 1020.5 1020.5 0.0
26/08:00am 11.8 11.9 10.2 90 0.8 CALM 0 2 0 1 1020.3 1020.3 0.0
26/07:30am 10.8 9.6 9.7 93 0.6 NW 6 7 3 4 1020.0 1020.0 0.0
26/07:00am 9.6 7.9 8.5 93 0.5 NW 7 9 4 5 1019.9 1019.9 0.0
26/06:30am 8.8 6.5 7.3 90 0.7 NW 9 11 5 6 1019.7 1019.7 0.0
26/06:00am 8.8 6.8 7.3 90 0.7 W 7 9 4 5 1019.5 1019.5 0.0
26/05:30am 8.5 6.5 7.3 92 0.6 W 7 7 4 4 1019.3 1019.2 0.0
26/05:00am 8.6 6.7 6.9 89 0.8 WNW 6 7 3 4 1019.3 1019.2 0.0
26/04:30am 8.7 6.7 7.0 89 0.8 WNW 7 9 4 5 1019.3 1019.2 0.0
26/04:00am 8.9 7.0 7.4 90 0.7 WNW 7 13 4 7 1019.1 1019.0 0.0
26/03:30am 8.7 6.4 7.3 91 0.7 N 9 9 5 5 1019.3 1019.2 0.0
26/03:00am 9.2 6.9 7.6 90 0.8 NNW 9 9 5 5 1019.4 1019.4 0.0
26/02:30am 8.4 5.9 6.7 89 0.8 NW 9 11 5 6 1019.7 1019.7 0.0
26/02:00am 8.9 6.5 6.9 87 0.9 NNW 9 11 5 6 1019.9 1019.9 0.0

Other Formats:

Comma delimited format used in spreadsheet applications
http://www.bom.gov.au/fwo/IDV60801/IDV60801.94912.axf

JavaScript Object Notation format (JSON) in row-major order
http://www.bom.gov.au/fwo/IDV60801/IDV60801.94912.json